Time;durP1;ratioP1;P1;durP2;ratioP2;P2;SDS_P1;SDS_P2;PMS_P1;PMS_P2;Temp;Humidity;BMP_temperature;BMP_pressure;BME280_temperature;BME280_humidity;BME280_pressure;Samples;Min_cycle;Max_cycle;Signal;HPM_P1;HPM_P2
2021/06/12 00:00:56;;;;;;;12.82;8.15;;;18.40;99.90;;;;;;5048785;28;20504;-70
2021/06/12 00:03:23;;;;;;;12.02;8.40;;;18.40;99.90;;;;;;5047890;28;21251;-69
2021/06/12 00:05:49;;;;;;;11.35;7.80;;;18.30;99.90;;;;;;5064136;28;20077;-69
2021/06/12 00:08:21;;;;;;;9.88;6.63;;;18.30;99.90;;;;;;5046825;28;20132;-69
2021/06/12 00:10:48;;;;;;;11.18;6.28;;;18.30;99.90;;;;;;5045530;28;20052;-70
2021/06/12 00:13:15;;;;;;;11.15;6.68;;;18.30;99.90;;;;;;5046981;28;20371;-70
2021/06/12 00:15:41;;;;;;;13.90;8.27;;;18.40;99.90;;;;;;5047478;28;20045;-70
2021/06/12 00:18:08;;;;;;;11.98;7.43;;;18.30;99.90;;;;;;5046193;28;20545;-69
2021/06/12 00:20:37;;;;;;;11.63;7.13;;;18.30;99.90;;;;;;5049416;28;20048;-70
2021/06/12 00:23:06;;;;;;;12.23;7.70;;;18.30;99.90;;;;;;5045032;28;20073;-70
2021/06/12 00:25:33;;;;;;;13.88;8.10;;;18.20;99.90;;;;;;5048938;28;20041;-69
2021/06/12 00:28:02;;;;;;;13.98;7.90;;;18.20;99.90;;;;;;5047196;28;20055;-69
2021/06/12 00:30:29;;;;;;;;;;;18.10;99.90;;;;;;5050224;28;20102;-70
2021/06/12 00:32:56;;;;;;;13.80;8.30;;;18.10;99.90;;;;;;5045285;28;19932;-70
2021/06/12 00:35:23;;;;;;;11.48;6.55;;;18.00;99.90;;;;;;5048911;28;20115;-69
2021/06/12 00:37:50;;;;;;;10.23;6.05;;;18.00;99.90;;;;;;5046549;28;20500;-70
2021/06/12 00:40:20;;;;;;;13.55;6.85;;;18.00;99.90;;;;;;5064501;28;20099;-70
2021/06/12 00:42:47;;;;;;;12.55;6.28;;;18.00;99.90;;;;;;5044821;28;20181;-70
2021/06/12 00:45:18;;;;;;;11.55;6.05;;;18.00;99.90;;;;;;5048171;28;20084;-70
2021/06/12 00:47:47;;;;;;;10.65;5.80;;;18.00;99.90;;;;;;5056870;28;20055;-70
2021/06/12 00:50:15;;;;;;;9.98;5.40;;;18.00;99.90;;;;;;5048323;28;20049;-70
2021/06/12 00:52:43;;;;;;;14.27;6.60;;;18.00;99.90;;;;;;5044356;28;20267;-70
2021/06/12 00:55:12;;;;;;;12.75;6.75;;;18.10;99.90;;;;;;5050021;28;20145;-70
2021/06/12 00:57:39;;;;;;;14.00;6.80;;;18.10;99.90;;;;;;5045973;28;20045;-70
2021/06/12 01:00:08;;;;;;;13.10;6.47;;;18.20;99.90;;;;;;5049324;28;20114;-69
2021/06/12 01:02:36;;;;;;;12.20;5.95;;;18.20;99.90;;;;;;5045772;28;20073;-69
2021/06/12 01:05:03;;;;;;;;;;;18.20;99.90;;;;;;5049016;28;20500;-70
2021/06/12 01:07:30;;;;;;;13.52;5.38;;;18.20;99.90;;;;;;5047344;28;20010;-69
2021/06/12 01:09:57;;;;;;;14.55;4.85;;;18.20;99.90;;;;;;5048673;28;20049;-70
2021/06/12 01:12:27;;;;;;;14.07;5.18;;;18.20;99.90;;;;;;5044714;28;20132;-69
2021/06/12 01:15:04;;;;;;;10.07;5.00;;;18.20;99.90;;;;;;5048216;28;20422;-70
2021/06/12 01:17:35;;;;;;;12.55;5.30;;;18.20;99.90;;;;;;5045490;28;20048;-70
2021/06/12 01:20:07;;;;;;;12.00;5.25;;;18.20;99.90;;;;;;5050236;28;20164;-70
2021/06/12 01:22:46;;;;;;;15.93;6.55;;;18.20;99.90;;;;;;5049867;28;20064;-70
2021/06/12 01:25:38;;;;;;;13.52;5.90;;;18.20;99.90;;;;;;5067489;28;20489;-70
2021/06/12 01:28:14;;;;;;;10.88;4.65;;;18.20;99.90;;;;;;5049508;28;20099;-70
2021/06/12 01:30:43;;;;;;;11.20;4.65;;;18.20;99.90;;;;;;5062437;28;20128;-69
2021/06/12 01:33:13;;;;;;;12.25;5.93;;;18.20;99.90;;;;;;5042592;28;20472;-70
2021/06/12 01:35:50;;;;;;;11.68;5.43;;;18.10;99.90;;;;;;5052278;28;20076;-70
2021/06/12 01:38:27;;;;;;;11.32;5.50;;;18.20;99.90;;;;;;5050503;28;20080;-70
2021/06/12 01:40:57;;;;;;;12.73;5.50;;;18.20;99.90;;;;;;5051165;28;20130;-70
2021/06/12 01:43:29;;;;;;;13.52;5.70;;;18.10;99.90;;;;;;5065469;28;20072;-69
2021/06/12 01:45:57;;;;;;;15.98;6.65;;;18.10;99.90;;;;;;5050183;28;20045;-69
2021/06/12 01:48:24;;;;;;;11.85;6.05;;;18.10;99.90;;;;;;5047769;28;20061;-70
2021/06/12 01:50:52;;;;;;;14.70;5.87;;;18.10;99.90;;;;;;5051610;28;20095;-70
2021/06/12 01:53:30;;;;;;;13.35;6.00;;;18.10;99.90;;;;;;5050033;28;20107;-70
2021/06/12 01:56:00;;;;;;;12.70;5.93;;;18.10;99.90;;;;;;5077351;28;20095;-69
2021/06/12 01:58:28;;;;;;;11.13;5.20;;;18.00;99.90;;;;;;5049616;28;20502;-69
2021/06/12 02:00:55;;;;;;;9.98;5.13;;;18.10;99.90;;;;;;5050078;28;20515;-69
2021/06/12 02:03:23;;;;;;;9.60;5.22;;;18.10;99.90;;;;;;5050591;28;20065;-70
2021/06/12 02:05:52;;;;;;;12.95;5.60;;;18.10;99.90;;;;;;5051048;28;20091;-70
2021/06/12 02:08:21;;;;;;;9.52;4.75;;;18.10;99.90;;;;;;5050957;28;20559;-70
2021/06/12 02:10:49;;;;;;;12.02;5.13;;;18.10;99.90;;;;;;5050145;28;20076;-69
2021/06/12 02:13:17;;;;;;;13.63;5.10;;;18.10;99.90;;;;;;5047443;28;20076;-70
2021/06/12 02:15:45;;;;;;;15.30;6.10;;;18.20;99.90;;;;;;5051003;28;20433;-69
2021/06/12 02:18:13;;;;;;;14.38;5.43;;;18.20;99.90;;;;;;5048865;28;20081;-70
2021/06/12 02:20:42;;;;;;;11.43;5.78;;;18.10;99.90;;;;;;5051332;28;20416;-69
2021/06/12 02:23:09;;;;;;;12.63;5.72;;;18.20;99.90;;;;;;5048900;28;20072;-69
2021/06/12 02:25:39;;;;;;;12.37;5.70;;;18.10;99.90;;;;;;5051617;28;20135;-70
2021/06/12 02:28:10;;;;;;;10.73;5.13;;;18.10;99.90;;;;;;5047006;28;20122;-70
2021/06/12 02:30:43;;;;;;;11.75;5.22;;;18.10;99.90;;;;;;5065710;28;20124;-70
2021/06/12 02:33:13;;;;;;;10.82;5.97;;;18.10;99.90;;;;;;5046249;28;20091;-70
2021/06/12 02:35:41;;;;;;;12.10;6.20;;;18.10;99.90;;;;;;5049251;28;20111;-70
2021/06/12 02:38:07;;;;;;;13.70;6.07;;;18.10;99.90;;;;;;5047911;28;20437;-70
2021/06/12 02:40:35;;;;;;;11.13;5.95;;;18.10;99.90;;;;;;5051146;28;20382;-70
2021/06/12 02:43:02;;;;;;;14.55;5.88;;;18.10;99.90;;;;;;5063663;28;20120;-70
2021/06/12 02:45:29;;;;;;;10.88;5.53;;;18.10;99.90;;;;;;5052953;28;20053;-70
2021/06/12 02:48:03;;;;;;;9.65;5.25;;;18.10;99.90;;;;;;5049213;28;20136;-70
2021/06/12 02:50:35;;;;;;;12.70;6.90;;;18.10;99.90;;;;;;5054611;28;20081;-70
2021/06/12 02:53:06;;;;;;;15.80;7.47;;;18.10;99.90;;;;;;5046963;28;20084;-69
2021/06/12 02:55:37;;;;;;;17.15;7.22;;;18.20;99.90;;;;;;5050108;28;20110;-70
2021/06/12 02:58:05;;;;;;;13.00;6.40;;;18.20;99.90;;;;;;5049106;28;20484;-70
2021/06/12 03:00:34;;;;;;;12.30;6.13;;;18.10;99.90;;;;;;5050452;28;20073;-70
2021/06/12 03:03:02;;;;;;;11.90;6.10;;;18.10;99.90;;;;;;5047542;28;20045;-70
2021/06/12 03:05:31;;;;;;;14.55;6.72;;;18.10;99.90;;;;;;5049541;28;20072;-70
2021/06/12 03:07:59;;;;;;;13.60;6.28;;;18.10;99.90;;;;;;5049121;28;20357;-71
2021/06/12 03:10:27;;;;;;;;;;;18.10;99.90;;;;;;5049508;28;20361;-70
2021/06/12 03:12:55;;;;;;;12.38;6.15;;;18.00;99.90;;;;;;5046894;28;19921;-70
2021/06/12 03:15:23;;;;;;;14.55;6.50;;;18.00;99.90;;;;;;5050845;28;20076;-70
2021/06/12 03:17:51;;;;;;;14.30;7.03;;;18.00;99.90;;;;;;5046809;28;20052;-70
2021/06/12 03:20:20;;;;;;;16.10;7.47;;;18.00;99.90;;;;;;5049994;28;20421;-70
2021/06/12 03:22:50;;;;;;;14.32;6.80;;;18.00;99.90;;;;;;5045909;28;20166;-70
2021/06/12 03:25:20;;;;;;;13.18;6.45;;;18.00;99.90;;;;;;5043048;28;20095;-70
2021/06/12 03:27:48;;;;;;;11.43;6.47;;;18.00;99.90;;;;;;5047349;28;20095;-70
2021/06/12 03:30:15;;;;;;;11.87;5.97;;;18.00;99.90;;;;;;5063284;28;20102;-70
2021/06/12 03:32:43;;;;;;;11.77;5.78;;;18.00;99.90;;;;;;5047622;28;20311;-69
2021/06/12 03:35:11;;;;;;;11.93;6.30;;;18.00;99.90;;;;;;5047573;28;20041;-70
2021/06/12 03:37:40;;;;;;;15.73;7.32;;;18.10;99.90;;;;;;5046132;28;20098;-70
2021/06/12 03:40:09;;;;;;;13.10;7.45;;;18.10;99.90;;;;;;5049028;28;20077;-70
2021/06/12 03:42:37;;;;;;;14.40;7.18;;;18.10;99.90;;;;;;5048994;28;20068;-70
2021/06/12 03:45:10;;;;;;;13.10;6.25;;;18.00;99.90;;;;;;5048841;28;20528;-70
2021/06/12 03:47:38;;;;;;;11.63;6.43;;;18.00;99.90;;;;;;5044603;28;20211;-70
2021/06/12 03:50:08;;;;;;;14.18;6.50;;;18.00;99.90;;;;;;5051320;28;20660;-70
2021/06/12 03:52:36;;;;;;;12.27;6.35;;;18.10;99.90;;;;;;5046147;28;20139;-70
2021/06/12 03:55:05;;;;;;;12.65;6.75;;;18.00;99.90;;;;;;5045453;28;20087;-70
2021/06/12 03:57:34;;;;;;;12.23;7.20;;;18.10;99.90;;;;;;5046226;28;20076;-70
2021/06/12 04:00:03;;;;;;;13.15;6.93;;;18.00;99.90;;;;;;5049710;28;20219;-70
2021/06/12 04:02:30;;;;;;;13.93;7.00;;;18.00;99.90;;;;;;5047346;28;20088;-70
2021/06/12 04:04:57;;;;;;;14.45;6.93;;;18.10;99.90;;;;;;5048037;28;20087;-70
2021/06/12 04:07:25;;;;;;;10.75;7.05;;;18.10;99.90;;;;;;5046939;28;20103;-71
2021/06/12 04:09:52;;;;;;;;;;;18.10;99.90;;;;;;5049931;28;20231;-70
2021/06/12 04:12:19;;;;;;;14.38;6.03;;;18.00;99.90;;;;;;5048018;28;19964;-70
2021/06/12 04:14:47;;;;;;;13.17;6.97;;;18.10;99.90;;;;;;5046896;28;20049;-70
2021/06/12 04:17:15;;;;;;;16.20;6.43;;;18.10;99.90;;;;;;5045910;28;20390;-69
2021/06/12 04:19:43;;;;;;;12.95;6.47;;;18.10;99.90;;;;;;5048845;28;20048;-70
2021/06/12 04:22:09;;;;;;;13.85;6.05;;;18.00;99.90;;;;;;5047766;28;20137;-70
2021/06/12 04:24:36;;;;;;;11.95;6.05;;;18.10;99.90;;;;;;5048396;28;20178;-70
2021/06/12 04:27:04;;;;;;;13.88;5.68;;;18.10;99.90;;;;;;5046203;28;20500;-70
2021/06/12 04:29:31;;;;;;;12.50;6.50;;;18.00;99.90;;;;;;5049493;28;20084;-70
2021/06/12 04:31:57;;;;;;;9.85;5.50;;;18.10;99.90;;;;;;5047975;28;20084;-70
2021/06/12 04:34:24;;;;;;;10.25;5.88;;;18.10;99.90;;;;;;5046224;28;20138;-70
2021/06/12 04:36:51;;;;;;;12.55;5.80;;;18.10;99.90;;;;;;5046085;28;20087;-70
2021/06/12 04:39:18;;;;;;;8.70;5.28;;;18.10;99.90;;;;;;5048352;28;20519;-70
2021/06/12 04:41:45;;;;;;;10.90;5.68;;;18.10;99.90;;;;;;5042383;28;20132;-70
2021/06/12 04:44:12;;;;;;;13.77;5.25;;;18.10;99.90;;;;;;5047929;28;20132;-71
2021/06/12 04:46:43;;;;;;;10.90;5.93;;;18.10;99.90;;;;;;5046391;28;20135;-70
2021/06/12 04:49:13;;;;;;;10.07;5.75;;;18.10;99.90;;;;;;5042855;28;20077;-70
2021/06/12 04:51:40;;;;;;;13.25;5.20;;;18.00;99.90;;;;;;5038876;28;20125;-69
2021/06/12 04:54:07;;;;;;;10.88;4.95;;;17.90;99.90;;;;;;5029724;28;20073;-70
2021/06/12 04:56:34;;;;;;;9.05;5.03;;;17.90;99.90;;;;;;5047245;28;20081;-70
2021/06/12 04:59:00;;;;;;;10.70;5.47;;;18.00;99.90;;;;;;5051916;28;20084;-70
2021/06/12 05:01:27;;;;;;;10.80;5.30;;;18.00;99.90;;;;;;5049813;28;20386;-70
2021/06/12 05:03:54;;;;;;;13.20;5.65;;;17.90;99.90;;;;;;5047098;28;20801;-69
2021/06/12 05:06:21;;;;;;;9.70;5.55;;;17.90;99.90;;;;;;5041782;28;20076;-69
2021/06/12 05:08:47;;;;;;;11.95;6.30;;;17.90;99.90;;;;;;5051375;28;20080;-69
2021/06/12 05:11:14;;;;;;;9.95;6.03;;;17.90;99.90;;;;;;5049029;28;20048;-69
2021/06/12 05:13:41;;;;;;;12.80;5.70;;;17.90;99.90;;;;;;5065704;28;20160;-70
2021/06/12 05:16:08;;;;;;;11.45;5.85;;;17.90;99.90;;;;;;5049214;28;20087;-70
2021/06/12 05:18:42;;;;;;;13.57;6.03;;;17.80;99.90;;;;;;5045210;28;20132;-70
2021/06/12 05:21:13;;;;;;;9.63;5.53;;;17.80;99.90;;;;;;5051124;28;20230;-69
2021/06/12 05:23:40;;;;;;;10.75;5.65;;;17.80;99.90;;;;;;5045137;28;20485;-70
2021/06/12 05:26:08;;;;;;;11.65;5.80;;;17.90;99.90;;;;;;5047507;28;20067;-70
2021/06/12 05:28:35;;;;;;;11.52;5.68;;;17.90;99.90;;;;;;5049307;28;20102;-70
2021/06/12 05:31:02;;;;;;;9.73;5.22;;;17.90;99.90;;;;;;5048914;28;20072;-70
2021/06/12 05:33:30;;;;;;;12.60;6.47;;;17.90;99.90;;;;;;5040218;28;20088;-70
2021/06/12 05:35:58;;;;;;;;;;;17.90;99.90;;;;;;5047933;28;20041;-70
2021/06/12 05:38:26;;;;;;;13.27;5.97;;;17.90;99.90;;;;;;5043586;28;20486;-70
2021/06/12 05:40:54;;;;;;;13.68;5.80;;;17.90;99.90;;;;;;5038989;28;20041;-70
2021/06/12 05:43:22;;;;;;;10.48;5.65;;;17.90;99.90;;;;;;5040326;28;20041;-69
2021/06/12 05:45:50;;;;;;;9.70;5.60;;;17.90;99.90;;;;;;5045261;28;20488;-70
2021/06/12 05:48:17;;;;;;;10.95;5.65;;;18.00;99.90;;;;;;5037206;28;20060;-69
2021/06/12 05:50:43;;;;;;;12.07;5.82;;;18.10;99.90;;;;;;5048383;28;20117;-70
2021/06/12 05:53:10;;;;;;;12.73;5.72;;;18.10;99.90;;;;;;5031562;28;20077;-70
2021/06/12 05:55:37;;;;;;;10.55;5.57;;;18.10;99.90;;;;;;5031744;28;20132;-70
2021/06/12 05:58:04;;;;;;;12.25;5.75;;;18.10;99.90;;;;;;5032479;28;20472;-70
2021/06/12 06:00:31;;;;;;;11.20;5.93;;;18.20;99.90;;;;;;5033687;28;20056;-69
2021/06/12 06:02:58;;;;;;;10.73;5.17;;;18.20;99.90;;;;;;5031679;28;20492;-70
2021/06/12 06:05:25;;;;;;;11.35;5.40;;;18.30;99.90;;;;;;5047024;28;20520;-70
2021/06/12 06:07:52;;;;;;;12.27;5.57;;;18.30;99.90;;;;;;5028232;28;20049;-70
2021/06/12 06:10:19;;;;;;;10.38;4.85;;;18.40;99.90;;;;;;5028774;28;20115;-70
2021/06/12 06:12:47;;;;;;;10.37;5.07;;;18.50;99.90;;;;;;5029734;28;20049;-70
2021/06/12 06:15:14;;;;;;;9.07;5.10;;;18.50;99.90;;;;;;5034569;28;20054;-70
2021/06/12 06:17:42;;;;;;;9.57;4.77;;;18.60;99.90;;;;;;5061839;28;20049;-70
2021/06/12 06:20:11;;;;;;;10.75;4.70;;;18.70;99.90;;;;;;5032679;28;20073;-70
2021/06/12 06:22:38;;;;;;;8.25;4.40;;;18.80;99.90;;;;;;5030289;28;20081;-70
2021/06/12 06:25:06;;;;;;;11.18;4.90;;;18.90;99.90;;;;;;5060291;28;20128;-70
2021/06/12 06:27:34;;;;;;;9.00;4.68;;;18.90;99.90;;;;;;5042964;28;20056;-70
2021/06/12 06:30:02;;;;;;;8.90;4.68;;;19.00;99.90;;;;;;5028955;28;20045;-70
2021/06/12 06:32:29;;;;;;;8.27;4.40;;;19.10;99.90;;;;;;5026945;28;20080;-70
2021/06/12 06:34:56;;;;;;;8.02;4.18;;;19.10;99.90;;;;;;5026773;28;20386;-70
2021/06/12 06:37:23;;;;;;;9.05;3.95;;;19.10;99.90;;;;;;5026493;28;20164;-70
2021/06/12 06:39:50;;;;;;;8.18;3.50;;;19.10;99.90;;;;;;5042845;28;20049;-70
2021/06/12 06:42:17;;;;;;;9.55;3.63;;;19.10;99.90;;;;;;5042676;28;20080;-70
2021/06/12 06:44:43;;;;;;;8.43;4.47;;;19.10;99.90;;;;;;5045879;28;20349;-70
2021/06/12 06:47:10;;;;;;;8.88;4.60;;;19.10;99.90;;;;;;5056364;28;20079;-70
2021/06/12 06:49:37;;;;;;;8.52;4.22;;;19.00;99.90;;;;;;5028787;28;20479;-69
2021/06/12 06:52:04;;;;;;;8.45;4.63;;;19.00;99.90;;;;;;5028209;28;20148;-70
2021/06/12 06:54:32;;;;;;;10.80;4.70;;;19.00;99.90;;;;;;5029169;28;20094;-69
2021/06/12 06:56:59;;;;;;;7.77;3.83;;;19.00;99.90;;;;;;5029204;28;20434;-69
2021/06/12 06:59:26;;;;;;;8.55;4.05;;;19.00;99.90;;;;;;5029215;28;21045;-70
2021/06/12 07:01:53;;;;;;;10.10;4.00;;;19.00;99.90;;;;;;5038237;28;20107;-69
2021/06/12 07:04:20;;;;;;;9.02;3.92;;;19.00;99.90;;;;;;5026836;28;20445;-69
2021/06/12 07:06:47;;;;;;;12.00;4.47;;;19.00;99.90;;;;;;5025799;28;20453;-70
2021/06/12 07:09:14;;;;;;;7.65;3.30;;;19.10;99.90;;;;;;5027339;28;20140;-70
2021/06/12 07:11:40;;;;;;;8.60;3.70;;;19.10;99.90;;;;;;5026661;28;20096;-70
2021/06/12 07:14:07;;;;;;;9.32;4.03;;;19.00;99.90;;;;;;5027915;28;20523;-69
2021/06/12 07:16:34;;;;;;;10.20;3.75;;;19.00;99.90;;;;;;5026025;28;20132;-69
2021/06/12 07:19:01;;;;;;;7.32;3.55;;;19.10;99.90;;;;;;5027261;28;20042;-70
2021/06/12 07:21:28;;;;;;;6.28;3.47;;;19.10;99.90;;;;;;5026490;28;20132;-70
2021/06/12 07:23:55;;;;;;;7.82;2.95;;;19.10;99.90;;;;;;5024880;28;20361;-69
2021/06/12 07:26:22;;;;;;;9.00;4.50;;;19.10;99.90;;;;;;5030050;28;20128;-70
2021/06/12 07:28:50;;;;;;;9.15;3.83;;;19.00;99.90;;;;;;5028587;28;20144;-70
2021/06/12 07:31:39;;;;;;;7.97;3.10;;;19.00;99.90;;;;;;5026482;28;20194;-70
2021/06/12 07:34:07;;;;;;;7.43;3.10;;;19.10;99.90;;;;;;5058154;28;20096;-69
2021/06/12 07:36:35;;;;;;;6.80;3.03;;;19.10;99.90;;;;;;5058706;28;20141;-69
2021/06/12 07:39:07;;;;;;;6.95;2.88;;;19.10;99.90;;;;;;5032955;28;20071;-70
2021/06/12 07:41:34;;;;;;;9.80;3.80;;;19.20;99.90;;;;;;5030618;28;20552;-69
2021/06/12 07:44:02;;;;;;;7.57;3.40;;;19.30;99.90;;;;;;5043787;28;20099;-70
2021/06/12 07:46:29;;;;;;;7.68;3.13;;;19.40;99.90;;;;;;5026176;28;20076;-70
2021/06/12 07:48:56;;;;;;;9.47;3.00;;;19.50;99.90;;;;;;5028674;28;20483;-69
2021/06/12 07:51:23;;;;;;;5.35;2.90;;;19.60;99.90;;;;;;5028546;28;20100;-70
2021/06/12 07:53:50;;;;;;;9.97;3.73;;;19.60;99.90;;;;;;5024180;28;20061;-69
2021/06/12 07:56:17;;;;;;;8.05;2.83;;;19.60;99.90;;;;;;5025690;28;20311;-69
2021/06/12 07:58:44;;;;;;;7.15;2.30;;;19.60;99.90;;;;;;5025829;28;20497;-69
2021/06/12 08:01:11;;;;;;;7.15;2.40;;;19.60;99.90;;;;;;5059777;28;20575;-69
2021/06/12 08:03:38;;;;;;;5.93;2.20;;;19.60;99.90;;;;;;5025920;28;20049;-69
2021/06/12 08:06:05;;;;;;;6.07;2.38;;;19.60;99.90;;;;;;5027197;28;20084;-69
2021/06/12 08:08:32;;;;;;;8.70;2.90;;;19.50;99.90;;;;;;5025702;28;20080;-69
2021/06/12 08:10:59;;;;;;;5.10;2.42;;;19.50;99.90;;;;;;5024927;28;20507;-69
2021/06/12 08:13:26;;;;;;;7.93;2.65;;;19.40;99.90;;;;;;5025650;28;20132;-69
2021/06/12 08:15:53;;;;;;;7.03;2.57;;;19.40;99.90;;;;;;5025171;28;20316;-69
2021/06/12 08:18:19;;;;;;;7.65;2.45;;;19.40;99.90;;;;;;5056828;28;20144;-69
2021/06/12 08:20:48;;;;;;;5.63;2.30;;;19.40;99.90;;;;;;5056443;28;20160;-70
2021/06/12 08:23:16;;;;;;;5.43;2.28;;;19.40;99.90;;;;;;5041394;28;20132;-69
2021/06/12 08:25:43;;;;;;;6.35;3.00;;;19.40;99.90;;;;;;5025669;28;20053;-70
2021/06/12 08:28:10;;;;;;;11.70;3.03;;;19.40;99.90;;;;;;5023768;28;20128;-69
2021/06/12 08:30:38;;;;;;;10.48;2.92;;;19.40;99.90;;;;;;5026500;28;20148;-69
2021/06/12 08:33:11;;;;;;;6.30;2.35;;;19.50;99.90;;;;;;5026057;28;20119;-69
2021/06/12 08:35:39;;;;;;;8.20;2.65;;;19.50;99.90;;;;;;5023736;28;20560;-69
2021/06/12 08:38:07;;;;;;;5.78;2.03;;;19.50;99.90;;;;;;5024179;28;20481;-70
2021/06/12 08:40:36;;;;;;;7.18;2.38;;;19.50;99.90;;;;;;5027998;28;20128;-69
2021/06/12 08:43:06;;;;;;;6.20;2.30;;;19.60;99.90;;;;;;5056012;28;20049;-69
2021/06/12 08:45:34;;;;;;;9.18;3.00;;;19.60;99.90;;;;;;5026346;28;20144;-70
2021/06/12 08:48:01;;;;;;;;;;;19.70;99.90;;;;;;5025778;28;20197;-70
2021/06/12 08:50:30;;;;;;;7.87;2.60;;;19.70;99.90;;;;;;5057302;28;19925;-69
2021/06/12 08:52:57;;;;;;;6.13;2.38;;;19.80;99.90;;;;;;5024177;28;20073;-70
2021/06/12 08:55:39;;;;;;;6.28;2.33;;;19.80;99.90;;;;;;5024984;28;20053;-69
2021/06/12 08:58:07;;;;;;;7.32;2.35;;;19.90;99.90;;;;;;5027935;28;20056;-69
2021/06/12 09:00:34;;;;;;;6.40;2.37;;;19.90;99.90;;;;;;5025847;28;20069;-70
2021/06/12 09:03:22;;;;;;;8.35;2.38;;;20.00;99.90;;;;;;5024962;28;20390;-69
2021/06/12 09:05:50;;;;;;;;;;;20.00;99.90;;;;;;5025189;28;20091;-69
2021/06/12 09:08:28;;;;;;;9.07;2.47;;;19.90;99.90;;;;;;5026720;28;20022;-69
2021/06/12 09:11:01;;;;;;;10.35;2.50;;;19.90;99.90;;;;;;5025650;28;20092;-69
2021/06/12 09:13:41;;;;;;;7.07;2.15;;;19.90;99.90;;;;;;5024525;28;20081;-69
2021/06/12 09:16:23;;;;;;;7.53;2.08;;;19.90;99.90;;;;;;5024650;28;20077;-69
2021/06/12 09:19:20;;;;;;;5.80;2.20;;;19.90;99.90;;;;;;5026612;28;20405;-69
2021/06/12 09:22:09;;;;;;;6.45;2.00;;;19.90;99.90;;;;;;5027646;28;20487;-69
2021/06/12 09:24:42;;;;;;;6.40;2.42;;;19.90;99.90;;;;;;5026541;28;20075;-70
2021/06/12 09:27:09;;;;;;;6.93;2.20;;;19.90;99.90;;;;;;5027350;28;20077;-70
2021/06/12 09:29:58;;;;;;;5.55;2.40;;;20.00;99.90;;;;;;5028888;28;20450;-69
2021/06/12 09:32:29;;;;;;;6.35;2.40;;;20.00;99.90;;;;;;5026413;28;20081;-70
2021/06/12 09:35:07;;;;;;;8.35;2.30;;;20.00;99.90;;;;;;5025898;28;20118;-69
2021/06/12 09:37:35;;;;;;;7.68;2.33;;;20.10;99.90;;;;;;5027060;28;20136;-69
2021/06/12 09:40:14;;;;;;;5.22;2.00;;;20.10;99.90;;;;;;5041373;28;20119;-69
2021/06/12 09:42:48;;;;;;;9.23;2.15;;;20.10;99.90;;;;;;5045125;28;20129;-69
2021/06/12 09:45:20;;;;;;;5.72;2.03;;;20.20;99.90;;;;;;5030170;28;20069;-70
2021/06/12 09:47:47;;;;;;;5.07;1.83;;;20.20;99.90;;;;;;5045400;28;20092;-69
2021/06/12 09:50:15;;;;;;;6.75;2.10;;;20.20;99.90;;;;;;5034331;28;20057;-70
2021/06/12 09:52:47;;;;;;;8.10;2.20;;;20.20;99.90;;;;;;5023362;28;20544;-69
2021/06/12 09:55:30;;;;;;;7.05;2.22;;;20.30;99.90;;;;;;5029404;28;20425;-69
2021/06/12 09:58:00;;;;;;;8.82;2.53;;;20.30;99.90;;;;;;5031043;28;20046;-70
2021/06/12 10:00:42;;;;;;;7.40;2.00;;;20.30;99.90;;;;;;5029464;28;20052;-69
2021/06/12 10:03:32;;;;;;;7.95;2.10;;;20.30;99.90;;;;;;5030566;28;20045;-69
2021/06/12 10:06:28;;;;;;;5.82;2.10;;;20.30;99.90;;;;;;5029487;28;20053;-69
2021/06/12 10:08:54;;;;;;;7.53;2.00;;;20.30;99.80;;;;;;5029245;28;20148;-69
2021/06/12 10:11:26;;;;;;;5.97;1.88;;;20.30;99.90;;;;;;5028581;28;20137;-69
2021/06/12 10:13:53;;;;;;;6.05;2.28;;;20.20;99.90;;;;;;5043206;28;20049;-69
2021/06/12 10:16:21;;;;;;;7.60;2.17;;;20.20;99.90;;;;;;5028269;28;20450;-69
2021/06/12 10:18:51;;;;;;;7.65;2.50;;;20.30;99.90;;;;;;5045818;28;20300;-69
2021/06/12 10:21:24;;;;;;;4.47;1.85;;;20.30;99.90;;;;;;5028155;28;20148;-69
2021/06/12 10:23:52;;;;;;;5.47;2.35;;;20.40;99.90;;;;;;5029306;28;20081;-70
2021/06/12 10:26:21;;;;;;;8.52;2.20;;;20.40;99.90;;;;;;5059370;28;20061;-69
2021/06/12 10:28:49;;;;;;;7.57;1.77;;;20.40;99.50;;;;;;5031104;28;20056;-70
2021/06/12 10:31:22;;;;;;;6.18;1.80;;;20.40;99.90;;;;;;5028733;28;20049;-69
2021/06/12 10:33:52;;;;;;;7.93;1.92;;;20.40;99.90;;;;;;5029898;28;20060;-70
2021/06/12 10:36:22;;;;;;;4.32;2.25;;;20.50;99.90;;;;;;5026926;28;20077;-70
2021/06/12 10:38:51;;;;;;;6.55;1.90;;;20.60;99.90;;;;;;5029718;28;20115;-69
2021/06/12 10:41:23;;;;;;;6.72;1.92;;;20.60;99.90;;;;;;5029854;28;20050;-69
2021/06/12 10:43:53;;;;;;;6.82;1.75;;;20.60;99.90;;;;;;5028306;28;20145;-70
2021/06/12 10:46:25;;;;;;;6.32;1.65;;;20.70;99.90;;;;;;5028744;28;20137;-69
2021/06/12 10:48:57;;;;;;;6.07;1.80;;;20.70;99.90;;;;;;5045260;28;20091;-69
2021/06/12 10:51:27;;;;;;;6.57;1.88;;;20.70;99.90;;;;;;5029321;28;20136;-70
2021/06/12 10:56:50;;;;;;;5.60;1.85;;;20.80;99.90;;;;;;5030271;28;20132;-69
2021/06/12 10:59:35;;;;;;;6.18;1.80;;;20.80;99.90;;;;;;5030209;28;20492;-69
2021/06/12 11:02:08;;;;;;;6.50;2.03;;;20.90;99.90;;;;;;5042693;28;20484;-70
2021/06/12 11:04:51;;;;;;;6.60;1.70;;;20.90;99.90;;;;;;5031092;28;20372;-69
2021/06/12 11:07:27;;;;;;;5.70;1.90;;;21.00;99.90;;;;;;5029000;28;20103;-69
2021/06/12 11:10:13;;;;;;;7.45;2.00;;;21.00;99.80;;;;;;5029904;28;20555;-69
2021/06/12 11:12:51;;;;;;;4.28;1.63;;;21.10;99.90;;;;;;5028369;28;20715;-69
2021/06/12 11:15:21;;;;;;;6.72;2.10;;;21.10;99.90;;;;;;5029922;28;20041;-70
2021/06/12 11:18:21;;;;;;;6.53;2.13;;;21.20;99.90;;;;;;5027730;28;20088;-69
2021/06/12 11:21:03;;;;;;;5.78;1.95;;;21.10;98.70;;;;;;5029618;28;20571;-69
2021/06/12 11:23:44;;;;;;;7.60;2.33;;;21.10;99.40;;;;;;5026920;28;20481;-69
2021/06/12 11:26:12;;;;;;;9.52;2.15;;;21.00;98.20;;;;;;5028716;28;20716;-69
2021/06/12 11:28:40;;;;;;;9.55;1.98;;;20.90;99.20;;;;;;5060611;28;20257;-70
2021/06/12 11:31:26;;;;;;;7.10;1.90;;;20.90;99.80;;;;;;5028203;28;20529;-70
2021/06/12 11:34:09;;;;;;;6.75;1.85;;;20.90;99.40;;;;;;5029752;28;20504;-69
2021/06/12 11:36:36;;;;;;;6.43;2.20;;;21.00;99.30;;;;;;5027673;28;20084;-69
2021/06/12 11:39:03;;;;;;;5.00;2.03;;;21.00;99.40;;;;;;5042851;28;20453;-70
2021/06/12 11:41:30;;;;;;;5.20;1.73;;;21.00;99.40;;;;;;5045480;28;20453;-70
2021/06/12 11:43:59;;;;;;;4.30;1.67;;;21.10;99.40;;;;;;5027988;28;20143;-69
2021/06/12 11:46:44;;;;;;;10.27;2.40;;;21.10;99.60;;;;;;5045858;28;20073;-70
2021/06/12 11:49:13;;;;;;;6.13;1.70;;;21.00;99.50;;;;;;5044722;28;20076;-70
2021/06/12 11:51:43;;;;;;;5.78;2.08;;;21.00;99.30;;;;;;5028054;28;20053;-69
2021/06/12 11:54:13;;;;;;;5.78;1.90;;;20.90;99.20;;;;;;5061918;28;20072;-70
2021/06/12 11:56:44;;;;;;;6.13;1.90;;;20.90;99.10;;;;;;5029619;28;20057;-70
2021/06/12 11:59:17;;;;;;;5.43;1.98;;;20.80;98.90;;;;;;5028760;28;20091;-70
2021/06/12 12:01:46;;;;;;;4.93;1.60;;;20.80;98.80;;;;;;5043065;28;20089;-70
2021/06/12 12:04:18;;;;;;;4.30;1.50;;;20.80;98.90;;;;;;5027623;28;20137;-70
2021/06/12 12:06:57;;;;;;;5.20;1.52;;;20.80;98.70;;;;;;5026518;28;20065;-69
2021/06/12 12:09:34;;;;;;;7.38;1.90;;;20.80;98.40;;;;;;5027744;28;20081;-70
2021/06/12 12:12:04;;;;;;;6.10;1.63;;;20.90;97.80;;;;;;5027595;28;20431;-69
2021/06/12 12:14:37;;;;;;;9.40;2.08;;;20.90;97.90;;;;;;5044545;28;20048;-70
2021/06/12 12:17:28;;;;;;;5.18;1.70;;;20.90;98.30;;;;;;5025773;28;20158;-70
2021/06/12 12:19:57;;;;;;;22.20;3.53;;;21.00;98.50;;;;;;5023365;28;20481;-70
2021/06/12 12:22:37;;;;;;;13.85;2.70;;;21.10;98.30;;;;;;5028440;28;20053;-69
2021/06/12 12:25:10;;;;;;;6.40;2.30;;;21.10;96.80;;;;;;5026249;28;20532;-70
2021/06/12 12:27:38;;;;;;;4.32;1.35;;;21.20;98.20;;;;;;5029175;28;20469;-70
2021/06/12 12:30:07;;;;;;;4.28;1.48;;;21.20;97.60;;;;;;5030540;28;20084;-70
2021/06/12 12:32:42;;;;;;;4.97;1.45;;;21.20;97.00;;;;;;5026915;28;20055;-71
2021/06/12 12:35:11;;;;;;;6.03;1.67;;;21.20;97.80;;;;;;5021082;28;20041;-70
2021/06/12 12:37:38;;;;;;;5.18;1.33;;;21.30;97.80;;;;;;5025624;28;20081;-70
2021/06/12 12:40:18;;;;;;;4.43;1.52;;;21.30;97.60;;;;;;5042082;28;20073;-70
2021/06/12 12:42:45;;;;;;;6.30;1.40;;;21.40;96.80;;;;;;5027740;28;20073;-70
2021/06/12 12:45:13;;;;;;;7.18;1.65;;;21.40;97.00;;;;;;5028380;28;20037;-70
2021/06/12 12:47:40;;;;;;;7.78;1.60;;;21.40;96.70;;;;;;5025834;28;20108;-69
2021/06/12 12:50:07;;;;;;;4.57;1.23;;;21.40;96.80;;;;;;5033066;28;20141;-70
2021/06/12 12:52:34;;;;;;;4.60;1.20;;;21.50;96.90;;;;;;5042407;28;20076;-70
2021/06/12 12:55:07;;;;;;;11.50;2.28;;;21.50;97.10;;;;;;5027248;28;20140;-70
2021/06/12 12:57:53;;;;;;;7.05;1.50;;;21.50;96.90;;;;;;5026411;28;20338;-70
2021/06/12 13:00:28;;;;;;;4.30;1.27;;;21.60;96.50;;;;;;5025357;28;20184;-69